createdAt,value
2023-04-13T00:00:55.814Z,50.75
2023-04-13T00:01:57.584Z,50.74
2023-04-13T00:03:02.210Z,51.30
2023-04-13T00:04:05.594Z,50.75
2023-04-13T00:05:10.018Z,50.78
2023-04-13T00:06:12.916Z,51.02
2023-04-13T00:07:17.012Z,50.82
2023-04-13T00:08:22.828Z,50.66
2023-04-13T00:09:25.920Z,51.45
2023-04-13T00:10:28.604Z,50.65
2023-04-13T00:11:32.004Z,50.71
2023-04-13T00:12:34.843Z,51.30
2023-04-13T00:13:41.282Z,50.86
2023-04-13T00:14:44.358Z,50.93
2023-04-13T00:15:46.185Z,51.24
2023-04-13T00:16:48.964Z,51.01
2023-04-13T00:17:51.452Z,51.31
2023-04-13T00:18:54.226Z,51.38
2023-04-13T00:19:58.122Z,50.84
2023-04-13T00:21:01.076Z,51.01
2023-04-13T00:22:03.075Z,50.50
2023-04-13T00:23:05.794Z,50.57
2023-04-13T00:24:09.033Z,50.54
2023-04-13T00:25:14.437Z,50.77
2023-04-13T00:26:16.452Z,50.50
2023-04-13T00:27:19.109Z,51.03
2023-04-13T00:28:21.462Z,50.19
2023-04-13T00:29:24.179Z,50.62
2023-04-13T00:30:26.160Z,50.97
2023-04-13T00:31:29.581Z,50.13
2023-04-13T00:32:31.562Z,50.64
2023-04-13T00:33:34.292Z,49.75
2023-04-13T00:34:36.011Z,50.28
2023-04-13T00:35:41.138Z,49.76
2023-04-13T00:36:42.867Z,50.02
2023-04-13T00:37:47.039Z,49.98
2023-04-13T00:38:48.754Z,50.60
2023-04-13T00:39:52.836Z,50.34
2023-04-13T00:40:55.957Z,49.62
2023-04-13T00:41:58.664Z,50.39
2023-04-13T00:43:02.212Z,49.86
2023-04-13T00:44:04.378Z,50.11
2023-04-13T00:45:09.579Z,50.42
2023-04-13T00:46:11.498Z,50.18
2023-04-13T00:47:17.716Z,50.05
2023-04-13T00:48:19.520Z,49.75
2023-04-13T00:49:22.968Z,50.25
2023-04-13T00:50:24.784Z,50.24
2023-04-13T00:51:27.544Z,50.01
2023-04-13T00:52:29.514Z,49.80
2023-04-13T00:53:33.546Z,49.89
2023-04-13T00:54:35.671Z,50.56
2023-04-13T00:55:42.474Z,50.60
2023-04-13T00:56:44.718Z,50.85
2023-04-13T00:57:49.972Z,50.27
2023-04-13T00:58:51.861Z,50.01
2023-04-13T00:59:54.651Z,50.57
2023-04-13T01:00:56.329Z,50.06
2023-04-13T01:02:02.164Z,50.84
2023-04-13T01:03:04.149Z,50.35
2023-04-13T01:04:06.935Z,50.44
2023-04-13T01:05:12.182Z,50.45
2023-04-13T01:06:21.205Z,50.61
2023-04-13T01:07:30.129Z,50.05
2023-04-13T01:08:37.204Z,50.07
2023-04-13T01:09:42.112Z,49.04
2023-04-13T01:10:51.656Z,48.85
2023-04-13T01:11:58.161Z,49.21
2023-04-13T01:13:09.577Z,48.91
2023-04-13T01:14:15.379Z,48.68
2023-04-13T01:15:18.664Z,49.17
2023-04-13T01:16:22.275Z,48.82
2023-04-13T01:17:28.701Z,49.17
2023-04-13T01:18:34.757Z,48.86
2023-04-13T01:19:52.199Z,48.85
2023-04-13T01:20:55.044Z,49.02
2023-04-13T01:21:57.934Z,49.09
2023-04-13T01:23:02.163Z,49.10
2023-04-13T01:24:17.009Z,49.42
2023-04-13T01:25:28.174Z,49.33
2023-04-13T01:26:38.832Z,49.56
2023-04-13T01:27:46.918Z,49.44
2023-04-13T01:28:51.257Z,48.99
2023-04-13T01:29:56.871Z,49.44
2023-04-13T01:31:01.547Z,49.09
2023-04-13T01:32:03.463Z,49.79
2023-04-13T01:33:06.839Z,49.89
2023-04-13T01:34:09.123Z,49.22
2023-04-13T01:35:11.855Z,49.06
2023-04-13T01:36:14.452Z,49.43
2023-04-13T01:37:17.782Z,49.00
2023-04-13T01:38:24.602Z,49.38
2023-04-13T01:39:32.054Z,49.36
2023-04-13T01:40:36.773Z,49.14
2023-04-13T01:41:39.411Z,49.07
2023-04-13T01:42:43.282Z,48.85
2023-04-13T01:43:46.264Z,49.42
2023-04-13T01:44:47.954Z,48.61
2023-04-13T01:45:54.879Z,49.36
2023-04-13T01:47:02.265Z,48.85
2023-04-13T01:48:09.885Z,48.70
2023-04-13T01:49:11.823Z,48.79
2023-04-13T01:50:19.373Z,49.31
2023-04-13T01:51:24.303Z,49.02
2023-04-13T01:52:28.202Z,48.83
2023-04-13T01:53:31.518Z,49.35
2023-04-13T01:54:34.889Z,48.95
2023-04-13T01:55:38.305Z,49.67
2023-04-13T01:56:41.614Z,49.65
2023-04-13T01:57:47.274Z,49.06
2023-04-13T01:58:52.011Z,49.22
2023-04-13T01:59:53.713Z,49.28
2023-04-13T02:00:56.388Z,50.05
2023-04-13T02:01:59.826Z,50.04
2023-04-13T02:03:04.414Z,50.50
2023-04-13T02:04:07.762Z,50.07
2023-04-13T02:05:10.684Z,50.16
2023-04-13T02:06:13.899Z,50.40
2023-04-13T02:07:16.311Z,50.29
2023-04-13T02:08:20.635Z,49.79
2023-04-13T02:09:22.432Z,50.24
2023-04-13T02:10:26.440Z,49.93
2023-04-13T02:11:28.473Z,49.45
2023-04-13T02:12:31.123Z,49.79
2023-04-13T02:13:35.408Z,49.51
2023-04-13T02:14:37.384Z,49.98
2023-04-13T02:15:41.451Z,49.22
2023-04-13T02:16:43.245Z,49.56
2023-04-13T02:17:46.002Z,49.51
2023-04-13T02:18:49.222Z,49.57
2023-04-13T02:19:50.928Z,49.12
2023-04-13T02:21:00.516Z,49.18
2023-04-13T02:22:02.224Z,49.54
2023-04-13T02:23:04.953Z,49.41
2023-04-13T02:24:07.572Z,49.94
2023-04-13T02:25:11.619Z,49.46
2023-04-13T02:26:14.181Z,49.41
2023-04-13T02:27:17.189Z,48.91
2023-04-13T02:28:18.906Z,48.70
2023-04-13T02:29:24.116Z,49.52
2023-04-13T02:30:26.098Z,48.63
2023-04-13T02:31:31.955Z,48.79
2023-04-13T02:32:35.391Z,49.38
2023-04-13T02:33:39.836Z,48.80
2023-04-13T02:34:42.644Z,48.88
2023-04-13T02:35:45.621Z,49.17
2023-04-13T02:36:47.385Z,48.81
2023-04-13T02:37:50.041Z,48.62
2023-04-13T02:38:53.027Z,49.22
2023-04-13T02:39:55.811Z,48.53
2023-04-13T02:40:59.109Z,49.00
2023-04-13T02:42:02.300Z,48.67
2023-04-13T02:43:04.289Z,48.57
2023-04-13T02:44:06.976Z,48.49
2023-04-13T02:45:12.228Z,48.60
2023-04-13T02:46:15.874Z,48.94
2023-04-13T02:47:17.635Z,48.35
2023-04-13T02:48:20.539Z,48.77
2023-04-13T02:49:22.295Z,48.09
2023-04-13T02:50:25.055Z,48.34
2023-04-13T02:51:27.981Z,48.09
2023-04-13T02:52:31.056Z,48.52
2023-04-13T02:53:32.767Z,48.31
2023-04-13T02:54:35.496Z,48.36
2023-04-13T02:55:37.696Z,48.58
2023-04-13T02:56:40.478Z,49.01
2023-04-13T02:57:42.325Z,48.75
2023-04-13T02:58:45.905Z,49.11
2023-04-13T02:59:47.869Z,49.32
2023-04-13T03:00:52.073Z,48.62
2023-04-13T03:01:53.997Z,49.10
2023-04-13T03:02:57.387Z,48.99
2023-04-13T03:03:59.317Z,49.06
2023-04-13T03:05:02.808Z,49.71
2023-04-13T03:06:04.843Z,49.32
2023-04-13T03:07:09.997Z,49.45
2023-04-13T03:08:11.835Z,48.80
2023-04-13T03:09:16.118Z,49.52
2023-04-13T03:10:18.806Z,48.94
2023-04-13T03:11:23.523Z,48.94
2023-04-13T03:12:26.476Z,48.91
2023-04-13T03:13:29.163Z,49.13
2023-04-13T03:14:33.158Z,49.13
2023-04-13T03:15:36.233Z,48.78
2023-04-13T03:16:39.324Z,48.67
2023-04-13T03:17:44.041Z,48.63
2023-04-13T03:18:45.877Z,49.09
2023-04-13T03:19:49.532Z,48.83
2023-04-13T03:20:51.207Z,49.03
2023-04-13T03:21:54.017Z,49.04
2023-04-13T03:22:56.243Z,49.12
2023-04-13T03:23:59.363Z,48.71
2023-04-13T03:25:01.537Z,48.37
2023-04-13T03:26:04.251Z,48.83
2023-04-13T03:27:06.134Z,48.89
2023-04-13T03:28:08.911Z,48.95
2023-04-13T03:29:10.922Z,48.92
2023-04-13T03:30:14.149Z,48.86
2023-04-13T03:31:15.969Z,48.43
2023-04-13T03:32:21.366Z,48.71
2023-04-13T03:33:23.085Z,48.12
2023-04-13T03:34:25.849Z,47.86
2023-04-13T03:35:27.850Z,47.69
2023-04-13T03:36:31.539Z,47.94
2023-04-13T03:37:40.206Z,47.92
2023-04-13T03:38:43.076Z,48.62
2023-04-13T03:39:44.841Z,47.74
2023-04-13T03:40:47.627Z,48.31
2023-04-13T03:41:49.317Z,48.20
2023-04-13T03:42:52.025Z,48.27
2023-04-13T03:43:53.781Z,48.23
2023-04-13T03:44:56.437Z,48.26
2023-04-13T03:45:58.191Z,47.56
2023-04-13T03:47:01.159Z,47.59
2023-04-13T03:48:05.901Z,48.59
2023-04-13T03:49:10.445Z,47.70
2023-04-13T03:50:12.238Z,48.38
2023-04-13T03:51:14.913Z,48.04
2023-04-13T03:52:16.645Z,48.13
2023-04-13T03:53:19.340Z,48.17
2023-04-13T03:54:21.378Z,48.26
2023-04-13T03:55:24.162Z,48.09
2023-04-13T03:56:26.713Z,47.75
2023-04-13T03:57:29.435Z,48.29
2023-04-13T03:58:31.278Z,48.12
2023-04-13T03:59:33.980Z,48.04
2023-04-13T04:00:35.834Z,47.96
2023-04-13T04:01:38.650Z,48.29
2023-04-13T04:02:40.644Z,48.37
2023-04-13T04:03:45.046Z,47.95
2023-04-13T04:04:46.836Z,48.36
2023-04-13T04:05:49.591Z,48.45
2023-04-13T04:06:51.411Z,47.80
2023-04-13T04:07:54.072Z,48.40
2023-04-13T04:08:55.963Z,48.49
2023-04-13T04:09:58.659Z,49.02
2023-04-13T04:11:00.298Z,48.37
2023-04-13T04:12:03.769Z,48.55
2023-04-13T04:13:06.040Z,48.38
2023-04-13T04:14:08.736Z,48.39
2023-04-13T04:15:10.878Z,48.69
2023-04-13T04:16:13.687Z,48.96
2023-04-13T04:17:15.470Z,48.40
2023-04-13T04:18:18.154Z,48.79
2023-04-13T04:19:21.221Z,48.88
2023-04-13T04:20:24.063Z,48.91
2023-04-13T04:21:34.359Z,48.54
2023-04-13T04:22:37.147Z,48.91
2023-04-13T04:23:40.328Z,49.13
2023-04-13T04:24:42.465Z,49.17
2023-04-13T04:25:45.349Z,49.37
2023-04-13T04:26:50.199Z,49.03
2023-04-13T04:27:53.117Z,49.15
2023-04-13T04:29:03.111Z,49.33
2023-04-13T04:30:07.154Z,49.14
2023-04-13T04:31:10.820Z,49.09
2023-04-13T04:32:15.438Z,49.21
2023-04-13T04:33:17.110Z,49.26
2023-04-13T04:34:19.964Z,49.63
2023-04-13T04:35:26.113Z,49.16
2023-04-13T04:36:28.835Z,49.26
2023-04-13T04:37:37.692Z,49.88
2023-04-13T04:38:41.295Z,50.05
2023-04-13T04:39:44.554Z,49.19
2023-04-13T04:40:47.301Z,49.34
2023-04-13T04:41:49.177Z,49.76
2023-04-13T04:42:51.991Z,49.99
2023-04-13T04:43:56.734Z,49.42
2023-04-13T04:44:59.875Z,49.77
2023-04-13T04:46:04.458Z,49.38
2023-04-13T04:47:07.555Z,49.71
2023-04-13T04:48:09.517Z,49.52
2023-04-13T04:49:12.239Z,49.42
2023-04-13T04:50:14.486Z,49.40
2023-04-13T04:51:24.777Z,49.41
2023-04-13T04:52:26.459Z,49.04
2023-04-13T04:53:29.126Z,49.96
2023-04-13T04:54:30.880Z,49.72
2023-04-13T04:55:34.617Z,49.45
2023-04-13T04:56:36.313Z,49.26
2023-04-13T04:57:39.027Z,49.31
2023-04-13T04:58:40.714Z,49.42
2023-04-13T04:59:43.401Z,49.45
2023-04-13T05:00:45.219Z,49.83
2023-04-13T05:01:49.805Z,49.65
2023-04-13T05:02:51.813Z,49.34
2023-04-13T05:03:54.582Z,49.31
2023-04-13T05:04:57.403Z,49.56
2023-04-13T05:06:00.672Z,49.29
2023-04-13T05:07:03.774Z,49.89
2023-04-13T05:08:06.607Z,49.53
2023-04-13T05:09:09.030Z,49.75
2023-04-13T05:10:11.964Z,49.11
2023-04-13T05:11:14.688Z,49.82
2023-04-13T05:12:16.847Z,49.60
2023-04-13T05:13:19.509Z,49.30
2023-04-13T05:14:21.279Z,49.57
2023-04-13T05:15:24.996Z,49.38
2023-04-13T05:16:30.961Z,49.43
2023-04-13T05:17:32.835Z,49.76
2023-04-13T05:18:44.935Z,49.40
2023-04-13T05:19:48.144Z,49.11
2023-04-13T05:20:49.884Z,49.58
2023-04-13T05:21:52.568Z,49.03
2023-04-13T05:22:55.631Z,49.62
2023-04-13T05:23:58.316Z,49.14
2023-04-13T05:25:00.042Z,49.39
2023-04-13T05:26:02.730Z,49.54
2023-04-13T05:27:04.453Z,49.50
2023-04-13T05:28:07.239Z,49.17
2023-04-13T05:29:09.358Z,49.38
2023-04-13T05:30:12.629Z,49.17
2023-04-13T05:31:15.744Z,49.26
2023-04-13T05:32:18.516Z,49.47
2023-04-13T05:33:20.616Z,49.41
2023-04-13T05:34:23.307Z,49.41
2023-04-13T05:35:27.982Z,49.74
2023-04-13T05:36:32.015Z,49.43
2023-04-13T05:37:34.777Z,49.02
2023-04-13T05:38:38.896Z,49.85
2023-04-13T05:39:41.621Z,49.39
2023-04-13T05:40:43.378Z,49.02
2023-04-13T05:41:46.112Z,49.28
2023-04-13T05:42:47.997Z,49.48
2023-04-13T05:43:51.384Z,49.30
2023-04-13T05:44:53.103Z,49.25
2023-04-13T05:45:55.950Z,49.08
2023-04-13T05:46:58.178Z,49.31
2023-04-13T05:48:00.945Z,49.15
2023-04-13T05:49:02.754Z,49.01
2023-04-13T05:50:06.064Z,49.22
2023-04-13T05:51:08.348Z,48.91
2023-04-13T05:52:11.034Z,49.01
2023-04-13T05:53:12.798Z,48.70
2023-04-13T05:54:17.484Z,48.81
2023-04-13T05:55:21.952Z,48.84
2023-04-13T05:56:23.995Z,48.96
2023-04-13T05:57:27.170Z,48.92
2023-04-13T05:58:28.992Z,49.04
2023-04-13T05:59:31.993Z,48.50
2023-04-13T06:00:34.458Z,48.55
2023-04-13T06:01:37.910Z,48.54
2023-04-13T06:02:41.759Z,48.25
2023-04-13T06:03:46.288Z,48.42
2023-04-13T06:04:48.863Z,48.46
2023-04-13T06:05:52.508Z,48.43
2023-04-13T06:06:55.908Z,48.21
2023-04-13T06:07:59.745Z,48.06
2023-04-13T06:09:02.535Z,47.84
2023-04-13T06:10:06.955Z,47.72
2023-04-13T06:11:09.787Z,47.83
2023-04-13T06:12:11.536Z,47.99
2023-04-13T06:13:14.588Z,48.06
2023-04-13T06:14:17.788Z,47.69
2023-04-13T06:15:20.863Z,47.34
2023-04-13T06:16:23.348Z,47.48
2023-04-13T06:17:26.519Z,47.61
2023-04-13T06:18:28.830Z,47.61
2023-04-13T06:19:31.763Z,47.66
2023-04-13T06:20:34.328Z,47.62
2023-04-13T06:21:37.150Z,47.35
2023-04-13T06:22:38.853Z,47.17
2023-04-13T06:23:41.611Z,47.59
2023-04-13T06:24:43.268Z,47.43
2023-04-13T06:25:47.409Z,47.50
2023-04-13T06:26:49.109Z,47.43
2023-04-13T06:27:51.866Z,47.46
2023-04-13T06:28:53.600Z,47.34
2023-04-13T06:29:56.877Z,47.25
2023-04-13T06:30:58.639Z,47.25
2023-04-13T06:32:01.416Z,47.24
2023-04-13T06:33:04.285Z,46.83
2023-04-13T06:34:06.057Z,47.01
2023-04-13T06:35:09.231Z,46.82
2023-04-13T06:36:11.229Z,46.78
2023-04-13T06:37:13.984Z,46.72
2023-04-13T06:38:15.665Z,46.72
2023-04-13T06:39:18.335Z,46.72
2023-04-13T06:40:20.641Z,46.74
2023-04-13T06:41:24.664Z,46.74
2023-04-13T06:42:26.606Z,46.48
2023-04-13T06:43:29.934Z,46.66
2023-04-13T06:44:31.715Z,46.69
2023-04-13T06:45:34.743Z,46.55
2023-04-13T06:46:36.504Z,46.69
2023-04-13T06:47:40.958Z,46.29
2023-04-13T06:48:42.878Z,46.28
2023-04-13T06:49:45.952Z,46.17
2023-04-13T06:50:47.651Z,46.01
2023-04-13T06:51:50.391Z,46.14
2023-04-13T06:52:56.104Z,46.00
2023-04-13T06:53:57.811Z,45.87
2023-04-13T06:55:00.513Z,45.94
2023-04-13T06:56:03.181Z,45.87
2023-04-13T06:57:06.565Z,45.88
2023-04-13T06:58:09.188Z,45.80
2023-04-13T06:59:11.098Z,45.84
2023-04-13T07:00:29.115Z,45.83
2023-04-13T07:01:32.794Z,46.02
2023-04-13T07:02:34.846Z,45.70
2023-04-13T07:03:37.704Z,46.02
2023-04-13T07:04:39.720Z,45.74
2023-04-13T07:05:43.516Z,45.74
2023-04-13T07:06:45.526Z,45.89
2023-04-13T07:07:48.248Z,45.78
2023-04-13T07:08:49.954Z,45.61
2023-04-13T07:09:52.798Z,45.54
2023-04-13T07:10:55.265Z,45.55
2023-04-13T07:11:58.005Z,45.58
2023-04-13T07:13:01.019Z,45.46
2023-04-13T07:14:03.849Z,45.36
2023-04-13T07:15:06.943Z,45.19
2023-04-13T07:16:12.182Z,45.57
2023-04-13T07:17:14.304Z,45.44
2023-04-13T07:18:16.981Z,45.33
2023-04-13T07:19:20.517Z,45.65
2023-04-13T07:20:23.254Z,45.62
2023-04-13T07:21:24.999Z,45.68
2023-04-13T07:22:31.691Z,45.68
2023-04-13T07:23:34.534Z,45.76
2023-04-13T07:24:36.710Z,45.58
2023-04-13T07:25:39.365Z,45.42
2023-04-13T07:26:42.092Z,45.62
2023-04-13T07:27:44.094Z,45.55
2023-04-13T07:28:48.259Z,45.84
2023-04-13T07:29:52.286Z,45.74
2023-04-13T07:30:54.008Z,45.71
2023-04-13T07:32:01.264Z,45.91
2023-04-13T07:33:04.109Z,45.85
2023-04-13T07:34:05.917Z,45.81
2023-04-13T07:35:09.324Z,45.94
2023-04-13T07:36:12.174Z,46.04
2023-04-13T07:37:13.853Z,45.81
2023-04-13T07:38:16.592Z,46.08
2023-04-13T07:39:19.010Z,45.77
2023-04-13T07:40:21.665Z,45.61
2023-04-13T07:41:24.275Z,45.75
2023-04-13T07:42:27.013Z,45.70
2023-04-13T07:43:29.736Z,46.15
2023-04-13T07:44:34.181Z,46.19
2023-04-13T07:45:35.871Z,46.04
2023-04-13T07:46:39.417Z,46.19
2023-04-13T07:47:41.612Z,45.93
2023-04-13T07:48:44.855Z,45.65
2023-04-13T07:49:47.625Z,45.77
2023-04-13T07:50:49.347Z,45.78
2023-04-13T07:51:53.614Z,45.88
2023-04-13T07:52:56.308Z,45.93
2023-04-13T07:53:58.068Z,45.70
2023-04-13T07:55:03.114Z,45.84
2023-04-13T07:56:05.577Z,46.18
2023-04-13T07:57:08.279Z,46.04
2023-04-13T07:58:10.932Z,46.01
2023-04-13T07:59:13.919Z,46.04
2023-04-13T08:00:20.655Z,45.89
2023-04-13T08:01:22.589Z,46.30
2023-04-13T08:02:25.615Z,46.03
2023-04-13T08:03:31.009Z,46.23
2023-04-13T08:04:36.128Z,46.07
2023-04-13T08:05:38.905Z,46.14
2023-04-13T08:06:40.860Z,45.92
2023-04-13T08:07:46.529Z,46.15
2023-04-13T08:08:48.623Z,46.03
2023-04-13T08:09:52.646Z,46.17
2023-04-13T08:10:55.444Z,46.33
2023-04-13T08:11:58.898Z,46.23
2023-04-13T08:13:00.922Z,46.24
2023-04-13T08:14:03.770Z,46.43
2023-04-13T08:15:07.587Z,46.35
2023-04-13T08:16:11.483Z,46.56
2023-04-13T08:17:14.211Z,46.57
2023-04-13T08:18:15.950Z,46.39
2023-04-13T08:19:18.588Z,46.20
2023-04-13T08:20:21.182Z,46.03
2023-04-13T08:21:23.858Z,46.23
2023-04-13T08:22:25.546Z,46.16
2023-04-13T08:23:28.410Z,45.99
2023-04-13T08:24:31.125Z,46.21
2023-04-13T08:25:34.375Z,46.05
2023-04-13T08:26:36.222Z,46.01
2023-04-13T08:27:38.930Z,46.07
2023-04-13T08:28:40.693Z,46.22
2023-04-13T08:29:43.359Z,46.09
2023-04-13T08:30:45.821Z,45.86
2023-04-13T08:31:50.391Z,46.14
2023-04-13T08:32:53.697Z,46.12
2023-04-13T08:33:57.704Z,46.31
2023-04-13T08:34:59.513Z,45.96
2023-04-13T08:36:02.275Z,46.04
2023-04-13T08:37:04.061Z,46.09
2023-04-13T08:38:07.081Z,45.81
2023-04-13T08:39:10.443Z,45.87
2023-04-13T08:40:13.589Z,46.00
2023-04-13T08:41:17.801Z,46.12
2023-04-13T08:42:20.458Z,46.25
2023-04-13T08:43:23.209Z,46.29
2023-04-13T08:44:25.106Z,46.32
2023-04-13T08:45:30.541Z,46.58
2023-04-13T08:46:33.208Z,46.62
2023-04-13T08:47:37.314Z,46.51
2023-04-13T08:48:52.617Z,46.36
2023-04-13T08:49:58.428Z,46.85
2023-04-13T08:51:02.595Z,46.71
2023-04-13T08:52:08.775Z,46.51
2023-04-13T08:53:10.579Z,46.58
2023-04-13T08:54:14.847Z,46.80
2023-04-13T08:55:17.888Z,47.10
2023-04-13T08:56:28.174Z,47.05
2023-04-13T08:57:37.533Z,47.35
2023-04-13T08:58:42.962Z,47.52
2023-04-13T08:59:45.816Z,47.19
2023-04-13T09:00:50.041Z,47.17
2023-04-13T09:01:53.310Z,47.32
2023-04-13T09:03:04.912Z,47.06
2023-04-13T09:04:11.618Z,47.45
2023-04-13T09:05:16.385Z,47.30
2023-04-13T09:06:23.025Z,47.11
2023-04-13T09:07:27.971Z,47.53
2023-04-13T09:08:34.563Z,47.62
2023-04-13T09:09:38.280Z,47.51
2023-04-13T09:10:42.235Z,47.53
2023-04-13T09:11:46.393Z,47.16
2023-04-13T09:12:50.889Z,47.43
2023-04-13T09:13:53.808Z,47.44
2023-04-13T09:14:55.634Z,47.38
2023-04-13T09:15:58.298Z,47.42
2023-04-13T09:17:00.052Z,47.49
2023-04-13T09:18:10.998Z,47.64
2023-04-13T09:19:13.958Z,47.34
2023-04-13T09:20:18.901Z,47.94
2023-04-13T09:21:20.675Z,47.41
2023-04-13T09:22:23.327Z,47.93
2023-04-13T09:23:26.237Z,47.54
2023-04-13T09:24:40.168Z,47.77
2023-04-13T09:25:42.536Z,47.83
2023-04-13T09:26:46.109Z,47.69
2023-04-13T09:27:47.809Z,47.81
2023-04-13T09:28:54.297Z,47.89
2023-04-13T09:30:00.867Z,48.07
2023-04-13T09:31:03.965Z,47.84
2023-04-13T09:32:07.715Z,48.14
2023-04-13T09:33:11.695Z,47.97
2023-04-13T09:34:15.352Z,47.96
2023-04-13T09:35:17.873Z,47.90
2023-04-13T09:36:22.497Z,48.11
2023-04-13T09:37:24.512Z,47.70
2023-04-13T09:38:31.388Z,48.12
2023-04-13T09:39:34.231Z,48.17
2023-04-13T09:40:39.033Z,47.93
2023-04-13T09:41:46.557Z,48.39
2023-04-13T09:42:55.874Z,48.15
2023-04-13T09:43:57.968Z,48.08
2023-04-13T09:45:00.966Z,48.41
2023-04-13T09:46:03.846Z,48.38
2023-04-13T09:47:07.773Z,48.41
2023-04-13T09:48:20.609Z,48.59
2023-04-13T09:49:24.206Z,48.51
2023-04-13T09:50:28.270Z,48.89
2023-04-13T09:51:38.369Z,48.98
2023-04-13T09:52:40.623Z,48.33
2023-04-13T09:53:45.751Z,48.89
2023-04-13T09:54:49.909Z,48.89
2023-04-13T09:55:59.651Z,48.61
2023-04-13T09:57:01.380Z,47.86
2023-04-13T09:58:11.093Z,48.20
2023-04-13T09:59:13.318Z,47.91
2023-04-13T10:00:21.055Z,48.45
2023-04-13T10:01:24.783Z,48.21
2023-04-13T10:02:27.272Z,48.36
2023-04-13T10:03:32.221Z,48.22
2023-04-13T10:04:34.930Z,47.85
2023-04-13T10:05:51.144Z,48.02
2023-04-13T10:07:00.935Z,48.20
2023-04-13T10:08:02.616Z,47.87
2023-04-13T10:09:05.754Z,47.18
2023-04-13T10:10:09.676Z,47.13
2023-04-13T10:11:14.374Z,47.36
2023-04-13T10:12:16.961Z,46.51
2023-04-13T10:13:24.436Z,47.11
2023-04-13T10:14:33.141Z,46.54
2023-04-13T10:15:50.951Z,46.84
2023-04-13T10:17:33.566Z,46.54
2023-04-13T10:18:42.699Z,46.48
2023-04-13T10:19:47.416Z,46.68
2023-04-13T10:20:50.351Z,46.59
2023-04-13T10:21:54.831Z,46.28
2023-04-13T10:22:57.231Z,46.84
2023-04-13T10:24:00.229Z,46.07
2023-04-13T10:25:03.144Z,46.29
2023-04-13T10:26:06.539Z,46.02
2023-04-13T10:27:15.090Z,46.23
2023-04-13T10:28:17.470Z,46.17
2023-04-13T10:29:28.381Z,46.26
2023-04-13T10:30:31.310Z,45.94
2023-04-13T10:31:39.570Z,45.58
2023-04-13T10:32:42.736Z,45.76
2023-04-13T10:33:48.921Z,45.96
2023-04-13T10:34:52.936Z,45.65
2023-04-13T10:35:57.765Z,44.87
2023-04-13T10:37:03.761Z,44.69
2023-04-13T10:38:08.670Z,44.95
2023-04-13T10:39:10.850Z,44.51
2023-04-13T10:40:16.256Z,43.92
2023-04-13T10:41:24.915Z,44.13
2023-04-13T10:42:28.107Z,44.19
2023-04-13T10:43:32.487Z,44.23
2023-04-13T10:44:45.256Z,44.21
2023-04-13T10:45:47.923Z,44.10
2023-04-13T10:46:50.894Z,44.04
2023-04-13T10:47:54.238Z,43.79
2023-04-13T10:48:59.380Z,43.49
2023-04-13T10:50:02.293Z,43.67
2023-04-13T10:51:05.965Z,43.46
2023-04-13T10:52:10.093Z,43.31
2023-04-13T10:53:11.864Z,42.91
2023-04-13T10:54:15.217Z,42.83
2023-04-13T10:55:19.124Z,43.02
2023-04-13T10:56:21.868Z,42.32
2023-04-13T10:57:23.599Z,43.03
2023-04-13T10:58:28.537Z,42.98
2023-04-13T10:59:53.618Z,43.06
2023-04-13T11:00:59.695Z,43.36
2023-04-13T11:02:02.090Z,43.33
2023-04-13T11:03:06.646Z,43.20
2023-04-13T11:04:15.236Z,42.65
2023-04-13T11:05:20.850Z,42.76
2023-04-13T11:06:23.610Z,42.80
2023-04-13T11:07:26.188Z,42.83
2023-04-13T11:08:30.362Z,42.87
2023-04-13T11:09:32.030Z,42.74
2023-04-13T11:10:34.745Z,42.09
2023-04-13T11:11:39.634Z,42.00
2023-04-13T11:12:49.991Z,42.33
2023-04-13T11:13:52.698Z,42.33
2023-04-13T11:14:54.374Z,42.22
2023-04-13T11:16:03.878Z,42.37
2023-04-13T11:17:07.985Z,42.07
2023-04-13T11:18:10.429Z,41.75
2023-04-13T11:19:14.506Z,41.09
2023-04-13T11:20:16.687Z,41.01
2023-04-13T11:21:19.384Z,41.46
2023-04-13T11:22:23.559Z,40.95
2023-04-13T11:23:26.236Z,40.62
2023-04-13T11:24:33.792Z,40.33
2023-04-13T11:25:36.581Z,39.97
2023-04-13T11:26:39.783Z,39.51
2023-04-13T11:27:41.589Z,39.14
2023-04-13T11:28:46.185Z,38.99
2023-04-13T11:29:57.459Z,38.41
2023-04-13T11:31:01.511Z,38.40
2023-04-13T11:32:05.933Z,38.11
2023-04-13T11:33:09.874Z,37.69
2023-04-13T11:34:14.035Z,37.65
2023-04-13T11:35:16.553Z,37.82
2023-04-13T11:36:20.445Z,38.22
2023-04-13T11:37:22.809Z,38.62
2023-04-13T11:38:25.683Z,38.61
2023-04-13T11:39:29.501Z,38.56
2023-04-13T11:40:32.451Z,38.46
2023-04-13T11:41:39.339Z,38.75
2023-04-13T11:42:43.150Z,38.79
2023-04-13T11:43:46.145Z,39.02
2023-04-13T11:44:49.373Z,38.83
2023-04-13T11:45:52.147Z,38.82
2023-04-13T11:46:54.074Z,39.06
2023-04-13T11:47:57.831Z,38.77
2023-04-13T11:48:59.975Z,38.83
2023-04-13T11:50:04.604Z,38.24
2023-04-13T11:51:06.622Z,37.63
2023-04-13T11:52:09.386Z,37.80
2023-04-13T11:53:12.214Z,37.90
2023-04-13T11:54:14.127Z,38.12
2023-04-13T11:55:23.302Z,38.33
2023-04-13T11:56:25.971Z,38.25
2023-04-13T11:57:29.276Z,37.81
2023-04-13T11:58:32.882Z,37.67
2023-04-13T11:59:36.343Z,36.99
2023-04-13T12:00:41.164Z,36.73
2023-04-13T12:01:50.201Z,36.56
2023-04-13T12:04:14.880Z,36.64
2023-04-13T12:05:24.263Z,36.82
2023-04-13T12:06:27.863Z,36.39
2023-04-13T12:07:31.291Z,36.24
2023-04-13T12:08:34.421Z,36.18
2023-04-13T12:09:55.350Z,36.00
2023-04-13T12:13:33.247Z,36.35
2023-04-13T12:14:57.624Z,36.35
2023-04-13T12:17:34.682Z,36.64
2023-04-13T12:18:37.442Z,36.25
2023-04-13T12:19:41.306Z,36.36
2023-04-13T12:20:48.681Z,36.67
2023-04-13T12:21:52.878Z,36.43
2023-04-13T12:23:03.172Z,36.45
2023-04-13T12:24:11.561Z,36.41
2023-04-13T12:25:17.607Z,35.73
2023-04-13T12:26:59.472Z,35.36
2023-04-13T12:27:43.891Z,35.56
2023-04-13T12:28:46.605Z,35.53
2023-04-13T12:29:49.294Z,35.79
2023-04-13T12:30:51.050Z,35.77
2023-04-13T12:32:00.528Z,35.57
2023-04-13T12:33:02.343Z,35.63
2023-04-13T12:34:07.639Z,35.36
2023-04-13T12:35:10.062Z,35.34
2023-04-13T12:36:14.129Z,35.49
2023-04-13T12:37:16.794Z,35.06
2023-04-13T12:38:18.500Z,35.00
2023-04-13T12:39:21.324Z,34.70
2023-04-13T12:40:23.338Z,34.83
2023-04-13T12:41:26.417Z,34.81
2023-04-13T12:42:28.378Z,34.52
2023-04-13T12:43:31.213Z,34.80
2023-04-13T12:44:34.375Z,35.09
2023-04-13T12:45:37.380Z,34.61
2023-04-13T12:46:40.347Z,34.49
2023-04-13T12:47:43.547Z,34.72
2023-04-13T12:48:45.522Z,34.24
2023-04-13T12:49:48.394Z,34.51
2023-04-13T12:50:50.216Z,34.32
2023-04-13T12:51:54.305Z,34.39
2023-04-13T12:52:56.992Z,34.24
2023-04-13T12:53:58.708Z,34.48
2023-04-13T12:55:02.323Z,34.81
2023-04-13T12:56:05.430Z,34.81
2023-04-13T12:57:07.358Z,35.15
2023-04-13T12:58:11.946Z,35.13
2023-04-13T12:59:14.646Z,35.53
2023-04-13T13:00:18.842Z,35.63
2023-04-13T13:01:21.819Z,35.40
2023-04-13T13:02:24.405Z,35.39
2023-04-13T13:03:27.290Z,34.96
2023-04-13T13:04:32.004Z,34.87
2023-04-13T13:05:34.795Z,34.62
2023-04-13T13:06:38.156Z,34.54
2023-04-13T13:07:42.402Z,34.61
2023-04-13T13:08:44.075Z,34.67
2023-04-13T13:09:46.783Z,34.50
2023-04-13T13:10:48.646Z,34.39
2023-04-13T13:11:51.660Z,34.51
2023-04-13T13:12:53.412Z,34.50
2023-04-13T13:13:56.115Z,34.57
2023-04-13T13:14:58.613Z,34.64
2023-04-13T13:16:01.398Z,34.69
2023-04-13T13:17:03.737Z,35.01
2023-04-13T13:18:08.739Z,35.15
2023-04-13T13:19:11.464Z,35.09
2023-04-13T13:20:13.438Z,35.25
2023-04-13T13:21:16.145Z,35.32
2023-04-13T13:22:17.843Z,35.00
2023-04-13T13:23:21.869Z,35.24
2023-04-13T13:24:23.964Z,35.34
2023-04-13T13:25:26.781Z,35.29
2023-04-13T13:26:36.240Z,35.58
2023-04-13T13:28:54.193Z,35.74
2023-04-13T13:29:57.315Z,35.98
2023-04-13T13:30:59.997Z,36.18
2023-04-13T13:32:02.717Z,35.84
2023-04-13T13:33:04.795Z,35.99
2023-04-13T13:34:07.541Z,36.18
2023-04-13T13:35:10.595Z,36.28
2023-04-13T13:36:14.430Z,36.21
2023-04-13T13:37:16.526Z,36.72
2023-04-13T13:38:19.251Z,37.09
2023-04-13T13:39:22.919Z,37.42
2023-04-13T13:40:25.662Z,37.99
2023-04-13T13:41:27.341Z,39.12
2023-04-13T13:42:40.434Z,39.21
2023-04-13T13:43:50.879Z,39.73
2023-04-13T13:44:53.620Z,40.49
2023-04-13T13:45:56.464Z,40.92
2023-04-13T13:46:58.332Z,41.63
2023-04-13T13:48:01.225Z,41.77
2023-04-13T13:49:03.214Z,42.40